createdAt,value
2019-01-29T00:01:22.344Z,96855.34
2019-01-29T00:03:51.638Z,96852.33
2019-01-29T00:06:20.926Z,96856.75
2019-01-29T00:08:51.659Z,96857.39
2019-01-29T00:11:20.905Z,96864.98
2019-01-29T00:13:50.197Z,96864.90
2019-01-29T00:16:19.471Z,96864.27
2019-01-29T00:18:48.731Z,96873.52
2019-01-29T00:21:18.035Z,96875.91
2019-01-29T00:23:47.355Z,96884.73
2019-01-29T00:26:16.601Z,96882.05
2019-01-29T00:28:46.517Z,96883.63
2019-01-29T00:31:15.892Z,96877.33
2019-01-29T00:33:45.143Z,96893.27
2019-01-29T00:36:14.534Z,96889.48
2019-01-29T00:38:43.789Z,96897.87
2019-01-29T00:41:13.077Z,96903.39
2019-01-29T00:43:42.337Z,96906.56
2019-01-29T00:46:11.608Z,96906.08
2019-01-29T00:48:40.886Z,96911.70
2019-01-29T00:51:10.150Z,96914.37
2019-01-29T00:53:39.414Z,96923.33
2019-01-29T00:56:08.662Z,96916.06
2019-01-29T00:58:37.936Z,96926.95
2019-01-29T01:01:07.354Z,96935.50
2019-01-29T01:03:36.647Z,96940.25
2019-01-29T01:06:06.073Z,96944.19
2019-01-29T01:08:35.340Z,96945.29
2019-01-29T01:11:04.624Z,96943.95
2019-01-29T01:13:33.879Z,96943.97
2019-01-29T01:16:03.152Z,96945.77
2019-01-29T01:18:32.390Z,96949.17
2019-01-29T01:21:01.663Z,96950.19
2019-01-29T01:23:30.934Z,96946.63
2019-01-29T01:26:00.214Z,96952.87
2019-01-29T01:28:29.544Z,96952.80
2019-01-29T01:30:58.806Z,96958.63
2019-01-29T01:33:28.103Z,96961.88
2019-01-29T01:35:57.384Z,96958.32
2019-01-29T01:38:26.708Z,96968.21
2019-01-29T01:40:56.006Z,96966.86
2019-01-29T01:43:27.049Z,96971.03
2019-01-29T01:45:56.340Z,96966.38
2019-01-29T01:48:25.601Z,96974.20
2019-01-29T01:50:54.882Z,96979.78
2019-01-29T01:53:24.259Z,96975.92
2019-01-29T01:55:53.507Z,96986.92
2019-01-29T01:58:22.774Z,96980.50
2019-01-29T02:00:52.631Z,96984.61
2019-01-29T02:03:21.919Z,96992.05
2019-01-29T02:05:51.199Z,96995.28
2019-01-29T02:08:20.479Z,97000.59
2019-01-29T02:10:51.607Z,96999.63
2019-01-29T02:13:20.872Z,96994.25
2019-01-29T02:15:50.179Z,96999.80
2019-01-29T02:18:19.419Z,97001.03
2019-01-29T02:20:48.797Z,97006.16
2019-01-29T02:23:18.085Z,97014.84
2019-01-29T02:25:49.705Z,97017.77
2019-01-29T02:28:18.971Z,97020.94
2019-01-29T02:30:48.249Z,97024.72
2019-01-29T02:33:18.432Z,97028.14
2019-01-29T02:35:47.767Z,97030.05
2019-01-29T02:38:18.456Z,97036.06
2019-01-29T02:40:47.706Z,97035.66
2019-01-29T02:43:16.986Z,97034.80
2019-01-29T02:45:46.271Z,97038.77
2019-01-29T02:48:15.615Z,97037.11
2019-01-29T02:50:44.898Z,97042.24
2019-01-29T02:53:18.363Z,97046.76
2019-01-29T02:55:45.165Z,97041.73
2019-01-29T02:58:14.439Z,97052.13
2019-01-29T03:00:43.705Z,97051.45
2019-01-29T03:03:12.952Z,97058.55
2019-01-29T03:05:42.326Z,97061.97
2019-01-29T03:08:11.570Z,97064.78
2019-01-29T03:10:40.844Z,97064.89
2019-01-29T03:13:10.118Z,97075.70
2019-01-29T03:15:39.425Z,97077.83
2019-01-29T03:18:08.732Z,97080.16
2019-01-29T03:20:37.982Z,97082.92
2019-01-29T03:23:07.283Z,97087.78
2019-01-29T03:25:36.538Z,97093.95
2019-01-29T03:28:07.270Z,97098.23
2019-01-29T03:30:36.571Z,97104.84
2019-01-29T03:33:05.843Z,97095.54
2019-01-29T03:35:35.101Z,97102.16
2019-01-29T03:38:04.353Z,97111.42
2019-01-29T03:40:33.618Z,97110.08
2019-01-29T03:43:02.867Z,97107.58
2019-01-29T03:45:32.150Z,97117.50
2019-01-29T03:48:01.423Z,97120.91
2019-01-29T03:50:30.701Z,97124.50
2019-01-29T03:53:00.310Z,97119.92
2019-01-29T03:55:29.566Z,97127.95
2019-01-29T03:57:58.848Z,97127.00
2019-01-29T04:00:28.563Z,97132.53
2019-01-29T04:02:57.836Z,97136.72
2019-01-29T04:05:27.102Z,97134.73
2019-01-29T04:07:56.445Z,97132.53
2019-01-29T04:10:26.935Z,97144.87
2019-01-29T04:12:56.192Z,97138.39
2019-01-29T04:15:25.562Z,97143.15
2019-01-29T04:17:59.563Z,97148.66
2019-01-29T04:20:29.056Z,97149.38
2019-01-29T04:22:58.302Z,97144.87
2019-01-29T04:25:27.666Z,97150.73
2019-01-29T04:27:56.926Z,97151.52
2019-01-29T04:30:26.315Z,97145.70
2019-01-29T04:32:55.586Z,97153.28
2019-01-29T04:35:24.877Z,97154.34
2019-01-29T04:37:54.151Z,97151.88
2019-01-29T04:40:23.446Z,97154.41
2019-01-29T04:42:52.722Z,97149.82
2019-01-29T04:45:23.192Z,97156.46
2019-01-29T04:47:52.906Z,97154.77
2019-01-29T04:50:23.536Z,97156.41
2019-01-29T04:52:52.809Z,97156.30
2019-01-29T04:55:23.595Z,97161.77
2019-01-29T04:57:52.866Z,97165.03
2019-01-29T05:00:27.260Z,97169.61
2019-01-29T05:02:56.592Z,97167.54
2019-01-29T05:05:25.862Z,97167.70
2019-01-29T05:07:55.146Z,97171.81
2019-01-29T05:10:24.392Z,97171.88
2019-01-29T05:12:53.709Z,97175.59
2019-01-29T05:15:22.964Z,97174.75
2019-01-29T05:17:54.078Z,97177.91
2019-01-29T05:20:24.117Z,97172.91
2019-01-29T05:22:54.470Z,97175.70
2019-01-29T05:25:23.743Z,97184.32
2019-01-29T05:27:52.995Z,97186.04
2019-01-29T05:30:24.403Z,97187.70
2019-01-29T05:32:53.958Z,97188.56
2019-01-29T05:35:23.467Z,97195.30
2019-01-29T05:37:52.758Z,97194.11
2019-01-29T05:40:23.554Z,97204.37
2019-01-29T05:42:52.841Z,97212.44
2019-01-29T05:45:23.103Z,97206.52
2019-01-29T05:47:52.560Z,97207.09
2019-01-29T05:50:22.160Z,97211.67
2019-01-29T05:52:53.507Z,97215.00
2019-01-29T05:55:23.471Z,97225.11
2019-01-29T05:57:53.391Z,97222.05
2019-01-29T06:00:27.537Z,97230.65
2019-01-29T06:02:57.449Z,97227.34
2019-01-29T06:05:28.614Z,97235.30
2019-01-29T06:07:58.507Z,97237.86
2019-01-29T06:10:28.250Z,97241.95
2019-01-29T06:12:57.524Z,97243.18
2019-01-29T06:15:27.290Z,97243.85
2019-01-29T06:17:56.668Z,97240.92
2019-01-29T06:20:27.567Z,97244.52
2019-01-29T06:22:57.326Z,97243.48
2019-01-29T06:25:27.799Z,97240.31
2019-01-29T06:27:57.492Z,97246.08
2019-01-29T06:30:27.473Z,97246.91
2019-01-29T06:32:58.685Z,97250.48
2019-01-29T06:35:28.151Z,97257.45
2019-01-29T06:37:57.729Z,97262.21
2019-01-29T06:40:28.619Z,97258.58
2019-01-29T06:42:58.414Z,97267.56
2019-01-29T06:45:27.964Z,97267.74
2019-01-29T06:47:58.917Z,97260.23
2019-01-29T06:50:28.681Z,97274.52
2019-01-29T06:52:57.959Z,97271.59
2019-01-29T06:55:27.321Z,97273.67
2019-01-29T06:57:56.581Z,97276.69
2019-01-29T07:00:28.140Z,97280.97
2019-01-29T07:02:58.219Z,97282.69
2019-01-29T07:05:27.482Z,97293.59
2019-01-29T07:07:56.854Z,97294.58
2019-01-29T07:10:26.543Z,97295.92
2019-01-29T07:12:55.939Z,97291.03
2019-01-29T07:15:43.952Z,97296.77
2019-01-29T07:18:30.674Z,97291.24
2019-01-29T07:21:00.084Z,97295.67
2019-01-29T07:23:30.471Z,97308.27
2019-01-29T07:25:59.844Z,97299.09
2019-01-29T07:28:29.198Z,97301.78
2019-01-29T07:30:58.538Z,97306.19
2019-01-29T07:33:27.882Z,97310.53
2019-01-29T07:35:57.241Z,97308.94
2019-01-29T07:38:27.620Z,97309.97
2019-01-29T07:40:56.938Z,97308.58
2019-01-29T07:43:26.280Z,97311.70
2019-01-29T07:45:55.637Z,97320.30
2019-01-29T07:48:26.110Z,97319.75
2019-01-29T07:50:55.230Z,97317.80
2019-01-29T07:53:24.571Z,97322.17
2019-01-29T07:55:53.873Z,97323.27
2019-01-29T07:58:23.170Z,97321.80
2019-01-29T08:00:52.475Z,97328.16
2019-01-29T08:03:21.729Z,97318.38
2019-01-29T08:05:50.996Z,97323.89
2019-01-29T08:08:20.278Z,97320.73
2019-01-29T08:10:49.549Z,97320.36
2019-01-29T08:13:18.814Z,97321.34
2019-01-29T08:15:48.136Z,97325.84
2019-01-29T08:18:17.621Z,97326.45
2019-01-29T08:20:46.892Z,97327.55
2019-01-29T08:23:16.162Z,97325.35
2019-01-29T08:25:47.870Z,97324.01
2019-01-29T08:28:16.428Z,97322.54
2019-01-29T08:30:45.689Z,97321.28
2019-01-29T08:33:15.071Z,97325.48
2019-01-29T08:35:44.353Z,97332.97
2019-01-29T08:38:15.084Z,97333.03
2019-01-29T08:40:44.359Z,97342.20
2019-01-29T08:43:13.646Z,97344.40
2019-01-29T08:45:42.936Z,97343.02
2019-01-29T08:48:12.216Z,97343.20
2019-01-29T08:50:41.467Z,97348.52
2019-01-29T08:53:10.754Z,97347.21
2019-01-29T08:55:40.008Z,97348.55
2019-01-29T08:58:09.255Z,97347.58
2019-01-29T09:00:39.575Z,97352.84
2019-01-29T09:03:08.834Z,97353.02
2019-01-29T09:05:38.102Z,97346.36
2019-01-29T09:08:07.954Z,97354.24
2019-01-29T09:10:37.258Z,97349.25
2019-01-29T09:13:06.533Z,97347.75
2019-01-29T09:15:35.803Z,97342.28
2019-01-29T09:18:05.546Z,97345.05
2019-01-29T09:20:34.823Z,97339.79
2019-01-29T09:23:04.070Z,97346.14
2019-01-29T09:25:33.318Z,97349.45
2019-01-29T09:28:02.592Z,97343.65
2019-01-29T09:30:31.850Z,97341.79
2019-01-29T09:33:01.166Z,97340.34
2019-01-29T09:35:30.639Z,97340.58
2019-01-29T09:37:59.899Z,97348.66
2019-01-29T09:40:29.150Z,97344.62
2019-01-29T09:42:58.398Z,97343.72
2019-01-29T09:45:27.875Z,97345.22
2019-01-29T09:47:57.127Z,97343.72
2019-01-29T09:50:26.790Z,97351.17
2019-01-29T09:52:56.084Z,97356.72
2019-01-29T09:55:29.246Z,97355.86
2019-01-29T09:57:57.049Z,97351.86
2019-01-29T10:00:34.887Z,97347.58
2019-01-29T10:03:04.470Z,97347.82
2019-01-29T10:05:33.800Z,97352.98
2019-01-29T10:08:03.189Z,97349.44
2019-01-29T10:10:32.486Z,97357.94
2019-01-29T10:13:01.758Z,97353.05
2019-01-29T10:15:32.845Z,97343.33
2019-01-29T10:18:02.289Z,97342.43
2019-01-29T10:20:33.091Z,97332.62
2019-01-29T10:23:02.442Z,97334.89
2019-01-29T10:25:37.617Z,97327.70
2019-01-29T10:28:02.848Z,97326.19
2019-01-29T10:30:33.547Z,97322.54
2019-01-29T10:33:02.817Z,97318.06
2019-01-29T10:35:32.273Z,97320.09
2019-01-29T10:38:01.540Z,97314.94
2019-01-29T10:40:31.121Z,97310.79
2019-01-29T10:43:00.463Z,97305.56
2019-01-29T10:45:30.546Z,97303.92
2019-01-29T10:47:59.854Z,97299.64
2019-01-29T10:50:30.157Z,97294.02
2019-01-29T10:52:59.789Z,97291.64
2019-01-29T10:55:29.381Z,97289.23
2019-01-29T10:57:58.734Z,97293.76
2019-01-29T11:00:34.077Z,97290.09
2019-01-29T11:03:03.350Z,97278.94
2019-01-29T11:05:33.144Z,97277.34
2019-01-29T11:08:02.593Z,97273.95
2019-01-29T11:10:31.855Z,97270.25
2019-01-29T11:13:01.127Z,97267.98
2019-01-29T11:15:33.863Z,97261.21
2019-01-29T11:18:03.303Z,97261.79
2019-01-29T11:20:32.786Z,97251.47
2019-01-29T11:23:02.062Z,97246.92
2019-01-29T11:25:31.365Z,97241.27
2019-01-29T11:28:00.640Z,97237.70
2019-01-29T11:30:30.794Z,97236.58
2019-01-29T11:33:00.282Z,97236.91
2019-01-29T11:35:29.837Z,97231.67
2019-01-29T11:38:00.210Z,97233.69
2019-01-29T11:40:30.546Z,97219.98
2019-01-29T11:42:59.831Z,97227.24
2019-01-29T11:45:40.864Z,97226.37
2019-01-29T11:48:10.178Z,97223.09
2019-01-29T11:50:39.440Z,97221.84
2019-01-29T11:53:08.944Z,97222.86
2019-01-29T11:55:38.225Z,97231.19
2019-01-29T11:58:08.012Z,97219.69
2019-01-29T12:01:04.600Z,97220.32
2019-01-29T12:03:33.944Z,97219.79
2019-01-29T12:06:03.331Z,97215.94
2019-01-29T12:08:32.844Z,97208.89
2019-01-29T12:11:02.206Z,97210.48
2019-01-29T12:13:31.486Z,97199.52
2019-01-29T12:16:00.793Z,97201.44
2019-01-29T12:18:30.082Z,97196.86
2019-01-29T12:20:59.392Z,97196.97
2019-01-29T12:23:28.689Z,97198.98
2019-01-29T12:25:59.202Z,97195.87
2019-01-29T12:28:29.486Z,97184.27
2019-01-29T12:30:58.735Z,97180.55
2019-01-29T12:33:28.041Z,97186.20
2019-01-29T12:35:57.319Z,97181.75
2019-01-29T12:38:26.566Z,97177.30
2019-01-29T12:40:55.838Z,97181.64
2019-01-29T12:43:25.159Z,97173.34
2019-01-29T12:45:54.687Z,97175.07
2019-01-29T12:48:23.978Z,97166.06
2019-01-29T12:50:58.158Z,97165.91
2019-01-29T12:53:31.801Z,97165.73
2019-01-29T12:56:01.074Z,97168.88
2019-01-29T12:58:30.363Z,97153.56
2019-01-29T13:01:00.637Z,97146.67
2019-01-29T13:03:29.879Z,97146.84
2019-01-29T13:05:59.345Z,97142.87
2019-01-29T13:08:28.739Z,97141.14
2019-01-29T13:10:58.010Z,97144.36
2019-01-29T13:13:27.319Z,97142.72
2019-01-29T13:15:56.603Z,97136.82
2019-01-29T13:18:25.858Z,97136.99
2019-01-29T13:20:55.094Z,97135.30
2019-01-29T13:23:24.368Z,97132.53
2019-01-29T13:25:53.635Z,97130.00
2019-01-29T13:28:22.934Z,97126.69
2019-01-29T13:30:52.214Z,97122.89
2019-01-29T13:33:21.851Z,97122.30
2019-01-29T13:35:51.128Z,97119.31
2019-01-29T13:38:20.395Z,97117.84
2019-01-29T13:40:49.695Z,97117.31
2019-01-29T13:43:18.949Z,97114.91
2019-01-29T13:45:48.954Z,97105.83
2019-01-29T13:48:18.644Z,97106.64
2019-01-29T13:50:51.919Z,97101.48
2019-01-29T13:53:21.232Z,97103.53
2019-01-29T13:55:50.539Z,97104.41
2019-01-29T13:58:20.114Z,97096.72
2019-01-29T14:00:49.377Z,97101.83
2019-01-29T14:03:18.844Z,97096.32
2019-01-29T14:05:48.203Z,97100.09
2019-01-29T14:08:17.478Z,97094.67
2019-01-29T14:10:46.843Z,97095.89
2019-01-29T14:13:16.118Z,97090.49
2019-01-29T14:15:53.587Z,97091.61
2019-01-29T14:18:29.532Z,97088.84
2019-01-29T14:20:59.912Z,97078.98
2019-01-29T14:23:29.443Z,97078.94
2019-01-29T14:25:58.743Z,97082.61
2019-01-29T14:28:28.141Z,97077.27
2019-01-29T14:30:57.524Z,97081.55
2019-01-29T14:33:26.795Z,97076.89
2019-01-29T14:35:56.071Z,97077.03
2019-01-29T14:39:05.678Z,97075.05
2019-01-29T14:41:35.199Z,97079.35
2019-01-29T14:44:06.485Z,97075.59
2019-01-29T14:46:35.780Z,97076.41
2019-01-29T14:49:05.558Z,97068.63
2019-01-29T14:51:34.845Z,97065.45
2019-01-29T14:54:04.176Z,97066.19
2019-01-29T14:56:33.469Z,97065.08
2019-01-29T14:59:02.799Z,97057.19
2019-01-29T15:01:32.051Z,97055.75
2019-01-29T15:04:01.514Z,97054.58
2019-01-29T15:06:32.441Z,97052.20
2019-01-29T15:09:01.767Z,97048.90
2019-01-29T15:11:31.122Z,97046.20
2019-01-29T15:14:00.428Z,97033.59
2019-01-29T15:17:01.087Z,97040.31
2019-01-29T15:19:31.596Z,97042.21
2019-01-29T15:22:00.875Z,97038.34
2019-01-29T15:24:30.161Z,97041.10
2019-01-29T15:27:05.328Z,97034.45
2019-01-29T15:29:30.416Z,97037.46
2019-01-29T15:31:59.711Z,97035.86
2019-01-29T15:34:28.966Z,97035.34
2019-01-29T15:36:58.302Z,97032.48
2019-01-29T15:39:27.553Z,97033.01
2019-01-29T15:41:56.818Z,97030.48
2019-01-29T15:44:26.095Z,97028.44
2019-01-29T15:46:55.358Z,97028.24
2019-01-29T15:49:24.646Z,97023.66
2019-01-29T15:51:55.407Z,97019.72
2019-01-29T15:54:25.022Z,97022.53
2019-01-29T15:56:56.903Z,97017.95
2019-01-29T15:59:26.775Z,97020.52
2019-01-29T16:01:56.265Z,97019.14
2019-01-29T16:04:25.564Z,97015.13
2019-01-29T16:06:59.522Z,97017.02
2019-01-29T16:09:36.392Z,97014.39
2019-01-29T16:12:14.329Z,97016.61
2019-01-29T16:14:56.206Z,97002.70
2019-01-29T16:17:25.485Z,97008.64
2019-01-29T16:19:54.737Z,97009.96
2019-01-29T16:22:24.013Z,97001.16
2019-01-29T16:24:53.297Z,97000.29
2019-01-29T16:27:23.134Z,97001.67
2019-01-29T16:29:52.430Z,97005.05
2019-01-29T16:32:21.675Z,97001.25
2019-01-29T16:34:50.974Z,96991.59
2019-01-29T16:37:20.227Z,96995.89
2019-01-29T16:39:49.498Z,96990.03
2019-01-29T16:42:18.750Z,96990.75
2019-01-29T16:44:48.029Z,96992.73
2019-01-29T16:47:18.387Z,96989.24
2019-01-29T16:49:47.719Z,96988.97
2019-01-29T16:52:16.978Z,96976.55
2019-01-29T16:54:46.411Z,96979.66
2019-01-29T16:57:15.862Z,96978.00
2019-01-29T16:59:45.141Z,96974.80
2019-01-29T17:02:14.388Z,96971.83
2019-01-29T17:04:44.524Z,96967.23
2019-01-29T17:07:13.778Z,96971.52
2019-01-29T17:09:43.031Z,96969.65
2019-01-29T17:12:12.410Z,96972.63
2019-01-29T17:14:42.164Z,96963.75
2019-01-29T17:17:11.515Z,96964.07
2019-01-29T17:19:41.830Z,96959.52
2019-01-29T17:22:11.094Z,96956.95
2019-01-29T17:24:40.396Z,96953.66
2019-01-29T17:27:11.213Z,96949.72
2019-01-29T17:29:40.575Z,96943.16
2019-01-29T17:32:10.584Z,96944.02
2019-01-29T17:34:40.231Z,96941.97
2019-01-29T17:37:09.654Z,96939.51
2019-01-29T17:39:39.730Z,96936.75
2019-01-29T17:42:09.027Z,96936.28
2019-01-29T17:44:38.851Z,96931.08
2019-01-29T17:47:08.414Z,96927.53
2019-01-29T17:52:13.258Z,96916.53
2019-01-29T17:54:42.619Z,96922.15
2019-01-29T17:57:11.878Z,96919.45
2019-01-29T17:59:41.356Z,96918.40
2019-01-29T18:02:12.352Z,96912.08
2019-01-29T18:04:43.282Z,96910.03
2019-01-29T18:07:12.591Z,96905.59
2019-01-29T18:09:41.891Z,96906.06
2019-01-29T18:12:11.168Z,96892.85
2019-01-29T18:14:40.512Z,96893.02
2019-01-29T18:17:09.762Z,96883.94
2019-01-29T18:19:40.222Z,96880.45
2019-01-29T18:22:11.986Z,96878.67
2019-01-29T18:24:41.273Z,96867.00
2019-01-29T18:27:10.929Z,96876.43
2019-01-29T18:29:40.290Z,96863.42
2019-01-29T18:32:09.561Z,96858.91
2019-01-29T18:34:38.836Z,96854.91
2019-01-29T18:37:08.169Z,96856.55
2019-01-29T18:39:37.429Z,96844.13
2019-01-29T18:42:06.954Z,96843.64
2019-01-29T18:44:36.468Z,96836.38
2019-01-29T18:47:07.195Z,96836.38
2019-01-29T18:49:36.555Z,96828.51
2019-01-29T18:52:05.883Z,96820.77
2019-01-29T18:54:35.217Z,96824.19
2019-01-29T18:57:04.600Z,96818.95
2019-01-29T18:59:33.883Z,96815.66
2019-01-29T19:02:03.158Z,96814.31
2019-01-29T19:04:32.444Z,96805.59
2019-01-29T19:07:01.712Z,96807.43
2019-01-29T19:09:31.055Z,96807.59
2019-01-29T19:12:00.327Z,96804.62
2019-01-29T19:14:29.656Z,96804.69
2019-01-29T19:16:59.852Z,96804.07
2019-01-29T19:19:29.112Z,96796.56
2019-01-29T19:21:58.397Z,96796.20
2019-01-29T19:24:27.650Z,96799.17
2019-01-29T19:26:56.966Z,96793.81
2019-01-29T19:29:26.255Z,96788.88
2019-01-29T19:31:55.531Z,96792.00
2019-01-29T19:34:24.780Z,96791.81
2019-01-29T19:36:55.987Z,96779.36
2019-01-29T19:39:25.241Z,96785.05
2019-01-29T19:41:54.520Z,96781.30
2019-01-29T19:44:23.815Z,96777.66
2019-01-29T19:46:53.130Z,96779.73
2019-01-29T19:49:22.521Z,96778.14
2019-01-29T19:51:51.804Z,96776.68
2019-01-29T19:54:21.498Z,96777.08
2019-01-29T19:56:50.759Z,96773.45
2019-01-29T19:59:20.052Z,96771.44
2019-01-29T20:01:49.368Z,96765.88
2019-01-29T20:04:18.629Z,96762.91
2019-01-29T20:06:48.074Z,96754.55
2019-01-29T20:09:17.333Z,96748.95
2019-01-29T20:11:46.832Z,96745.17
2019-01-29T20:14:17.095Z,96737.89
2019-01-29T20:16:46.381Z,96735.22
2019-01-29T20:19:17.487Z,96733.50
2019-01-29T20:21:46.744Z,96726.91
2019-01-29T20:24:17.047Z,96729.83
2019-01-29T20:26:46.409Z,96727.88
2019-01-29T20:29:15.704Z,96717.89
2019-01-29T20:31:44.971Z,96716.42
2019-01-29T20:34:15.334Z,96710.89
2019-01-29T20:36:46.233Z,96708.91
2019-01-29T20:39:15.601Z,96702.45
2019-01-29T20:41:44.899Z,96706.81
2019-01-29T20:44:14.170Z,96698.02
2019-01-29T20:46:44.230Z,96701.81
2019-01-29T20:49:13.547Z,96693.81
2019-01-29T20:51:42.861Z,96688.34
2019-01-29T20:54:12.154Z,96684.45
2019-01-29T20:56:41.456Z,96681.52
2019-01-29T20:59:10.823Z,96673.95
2019-01-29T21:01:40.100Z,96676.45
2019-01-29T21:04:09.403Z,96683.72
2019-01-29T21:06:39.143Z,96680.46
2019-01-29T21:09:10.281Z,96673.52
2019-01-29T21:11:39.943Z,96665.52
2019-01-29T21:14:11.040Z,96671.48
2019-01-29T21:16:40.326Z,96664.88
2019-01-29T21:19:09.635Z,96661.11
2019-01-29T21:21:38.967Z,96658.62
2019-01-29T21:24:10.451Z,96655.64
2019-01-29T21:26:42.177Z,96658.14
2019-01-29T21:29:13.052Z,96657.66
2019-01-29T21:31:42.497Z,96656.36
2019-01-29T21:34:11.799Z,96652.09
2019-01-29T21:36:41.081Z,96648.08
2019-01-29T21:39:10.565Z,96647.23
2019-01-29T21:41:39.834Z,96638.96
2019-01-29T21:44:09.118Z,96632.14
2019-01-29T21:46:39.612Z,96635.91
2019-01-29T21:49:08.939Z,96642.40
2019-01-29T21:51:38.214Z,96624.72
2019-01-29T21:54:07.531Z,96629.53
2019-01-29T21:56:36.846Z,96619.91
2019-01-29T21:59:13.185Z,96613.52
2019-01-29T22:01:37.440Z,96607.92
2019-01-29T22:04:08.014Z,96610.36
2019-01-29T22:06:37.318Z,96601.78
2019-01-29T22:09:09.618Z,96602.44
2019-01-29T22:11:38.952Z,96602.07
2019-01-29T22:14:08.224Z,96596.13
2019-01-29T22:16:37.506Z,96590.64
2019-01-29T22:19:06.805Z,96590.02
2019-01-29T22:21:36.076Z,96580.11
2019-01-29T22:24:05.991Z,96577.47
2019-01-29T22:26:35.310Z,96576.28
2019-01-29T22:29:04.573Z,96572.80
2019-01-29T22:31:33.839Z,96567.92
2019-01-29T22:34:03.130Z,96570.55
2019-01-29T22:36:32.601Z,96559.77
2019-01-29T22:39:01.958Z,96557.64
2019-01-29T22:41:31.222Z,96548.86
2019-01-29T22:44:00.481Z,96547.55
2019-01-29T22:46:29.760Z,96541.09
2019-01-29T22:48:59.016Z,96540.77
2019-01-29T22:51:28.297Z,96541.69
2019-01-29T22:53:59.488Z,96537.48
2019-01-29T22:56:28.610Z,96542.47
2019-01-29T22:58:57.901Z,96532.56
2019-01-29T23:01:34.937Z,96527.88
2019-01-29T23:04:13.589Z,96522.53
2019-01-29T23:06:48.080Z,96519.13
2019-01-29T23:09:17.335Z,96516.84
2019-01-29T23:11:46.874Z,96514.11
2019-01-29T23:14:16.341Z,96506.55
2019-01-29T23:16:45.735Z,96497.12
2019-01-29T23:19:15.400Z,96495.21
2019-01-29T23:21:44.974Z,96495.30
2019-01-29T23:24:14.701Z,96489.52
2019-01-29T23:26:44.262Z,96488.19
2019-01-29T23:29:17.062Z,96478.22
2019-01-29T23:31:45.770Z,96480.92
2019-01-29T23:34:15.369Z,96476.40
2019-01-29T23:36:45.272Z,96478.10
2019-01-29T23:39:14.800Z,96472.87
2019-01-29T23:41:44.437Z,96464.91
2019-01-29T23:44:14.635Z,96465.58
2019-01-29T23:46:44.233Z,96456.95
2019-01-29T23:49:13.732Z,96452.09
2019-01-29T23:51:43.115Z,96446.13
2019-01-29T23:54:12.402Z,96441.64
2019-01-29T23:56:42.085Z,96438.72
2019-01-29T23:59:11.348Z,96437.48
